createdAt,value
2023-05-13T00:00:43.523Z,0.25
2023-05-13T00:03:43.706Z,0.17
2023-05-13T00:06:43.580Z,0.09
2023-05-13T00:09:43.513Z,0.1
2023-05-13T00:12:43.606Z,0.02
2023-05-13T00:15:43.521Z,0.02
2023-05-13T00:18:43.608Z,0
2023-05-13T00:21:43.506Z,0
2023-05-13T00:24:43.589Z,0.1
2023-05-13T00:27:43.539Z,0.14
2023-05-13T00:30:43.596Z,0.23
2023-05-13T00:33:43.535Z,0.19
2023-05-13T00:36:43.524Z,0.33
2023-05-13T00:39:43.563Z,0.19
2023-05-13T00:42:43.530Z,0.14
2023-05-13T00:45:43.640Z,0.15
2023-05-13T00:48:43.627Z,0.15
2023-05-13T00:51:43.565Z,0.09
2023-05-13T00:54:43.541Z,0.02
2023-05-13T00:57:43.534Z,0.01
2023-05-13T01:00:43.591Z,0
2023-05-13T01:03:43.649Z,0
2023-05-13T01:06:43.544Z,0
2023-05-13T01:09:43.643Z,0
2023-05-13T01:12:43.641Z,0.03
2023-05-13T01:15:43.556Z,0.03
2023-05-13T01:18:43.768Z,0.21
2023-05-13T01:21:43.584Z,0.32
2023-05-13T01:24:43.573Z,0.2
2023-05-13T01:27:43.592Z,0.51
2023-05-13T01:30:43.631Z,0.18
2023-05-13T01:33:43.557Z,0.39
2023-05-13T01:36:43.586Z,0.56
2023-05-13T01:39:43.666Z,0.46
2023-05-13T01:42:43.606Z,0.56
2023-05-13T01:45:43.705Z,0.59
2023-05-13T01:48:43.637Z,0.72
2023-05-13T01:51:43.630Z,0.54
2023-05-13T01:54:43.584Z,0.62
2023-05-13T01:57:43.683Z,0.54
2023-05-13T02:00:43.726Z,0.52
2023-05-13T02:03:43.745Z,0.46
2023-05-13T02:06:43.627Z,0.45
2023-05-13T02:09:43.664Z,0.13
2023-05-13T02:12:43.648Z,0.27
2023-05-13T02:15:43.653Z,0.27
2023-05-13T02:18:43.726Z,0.33
2023-05-13T02:21:43.883Z,0.37
2023-05-13T02:24:43.604Z,0.21
2023-05-13T02:27:43.685Z,0.16
2023-05-13T02:30:43.729Z,0.19
2023-05-13T02:33:43.622Z,0.3
2023-05-13T02:36:43.640Z,0.07
2023-05-13T02:39:43.699Z,0.11
2023-05-13T02:42:43.705Z,0.21
2023-05-13T02:45:43.789Z,0.13
2023-05-13T02:48:43.722Z,0.07
2023-05-13T02:51:43.758Z,0.11
2023-05-13T02:54:43.782Z,0.04
2023-05-13T02:57:43.666Z,0
2023-05-13T03:00:43.609Z,0.01
2023-05-13T03:03:43.728Z,0.04
2023-05-13T03:06:43.700Z,0
2023-05-13T03:09:43.674Z,0
2023-05-13T03:12:43.694Z,0.05
2023-05-13T03:15:44.510Z,0.04
2023-05-13T03:18:43.716Z,0.01
2023-05-13T03:21:43.682Z,0.17
2023-05-13T03:24:43.714Z,0.06
2023-05-13T03:27:43.687Z,0.24
2023-05-13T03:30:43.769Z,0.24
2023-05-13T03:33:43.697Z,0.13
2023-05-13T03:36:43.721Z,0.02
2023-05-13T03:39:43.690Z,0.04
2023-05-13T03:42:43.816Z,0.01
2023-05-13T03:45:43.881Z,0.11
2023-05-13T03:48:43.749Z,0.16
2023-05-13T03:51:43.826Z,0.04
2023-05-13T03:54:43.763Z,0
2023-05-13T03:57:43.761Z,0
2023-05-13T04:00:43.726Z,0
2023-05-13T04:03:43.707Z,0
2023-05-13T04:06:43.743Z,0
2023-05-13T04:09:43.823Z,0.01
2023-05-13T04:12:43.754Z,0.01
2023-05-13T04:15:43.695Z,0.14
2023-05-13T04:18:43.828Z,0.22
2023-05-13T04:21:43.754Z,0.08
2023-05-13T04:24:43.725Z,0.05
2023-05-13T04:27:43.835Z,0.13
2023-05-13T04:30:43.801Z,0.17
2023-05-13T04:33:43.808Z,0.15
2023-05-13T04:36:43.744Z,0.19
2023-05-13T04:39:43.729Z,0.2
2023-05-13T04:42:43.810Z,0.27
2023-05-13T04:45:43.780Z,0.05
2023-05-13T04:48:43.773Z,0.05
2023-05-13T04:51:43.806Z,0
2023-05-13T04:54:43.746Z,0
2023-05-13T04:57:43.810Z,0.01
2023-05-13T05:00:43.786Z,0.16
2023-05-13T05:03:43.793Z,0.05
2023-05-13T05:06:43.756Z,0.06
2023-05-13T05:09:43.789Z,0.04
2023-05-13T05:12:43.860Z,0.09
2023-05-13T05:15:43.885Z,0.09
2023-05-13T05:18:43.922Z,0.21
2023-05-13T05:21:43.859Z,0.31
2023-05-13T05:24:43.830Z,0.36
2023-05-13T05:27:43.857Z,0.01
2023-05-13T05:30:43.885Z,0.06
2023-05-13T05:33:43.815Z,0.16
2023-05-13T05:36:43.815Z,0.2
2023-05-13T05:39:43.872Z,0.31
2023-05-13T05:42:43.860Z,0.33
2023-05-13T05:45:43.824Z,0.56
2023-05-13T05:48:43.884Z,0.62
2023-05-13T05:51:43.862Z,0.45
2023-05-13T05:54:43.814Z,0.52
2023-05-13T05:57:43.781Z,0.26
2023-05-13T06:00:43.894Z,0.27
2023-05-13T06:03:44.005Z,0.45
2023-05-13T06:06:43.900Z,0.28
2023-05-13T06:09:43.874Z,0.6
2023-05-13T06:12:43.894Z,0.21
2023-05-13T06:15:43.904Z,0.41
2023-05-13T06:18:43.996Z,0.24
2023-05-13T06:21:44.079Z,0.54
2023-05-13T06:24:43.841Z,0.61
2023-05-13T06:27:43.877Z,0.35
2023-05-13T06:30:43.889Z,0.41
2023-05-13T06:33:43.978Z,0.52
2023-05-13T06:36:43.872Z,0.49
2023-05-13T06:39:43.968Z,0.39
2023-05-13T06:42:43.875Z,0.73
2023-05-13T06:45:43.894Z,0.55
2023-05-13T06:48:43.969Z,0.62
2023-05-13T06:51:43.940Z,0.47
2023-05-13T06:54:43.932Z,0.65
2023-05-13T06:57:43.892Z,0.53
2023-05-13T07:00:43.881Z,1.02
2023-05-13T07:03:44.013Z,0.71
2023-05-13T07:06:43.929Z,0.73
2023-05-13T07:09:43.853Z,0.63
2023-05-13T07:12:44.023Z,0.5
2023-05-13T07:15:43.951Z,0.6
2023-05-13T07:18:43.971Z,0.69
2023-05-13T07:21:43.954Z,0.72
2023-05-13T07:24:43.938Z,0.9
2023-05-13T07:27:44.005Z,0.68
2023-05-13T07:30:43.972Z,0.35
2023-05-13T07:33:44.016Z,0.37
2023-05-13T07:36:43.952Z,0.32
2023-05-13T07:39:43.916Z,0.23
2023-05-13T07:42:43.958Z,0.38
2023-05-13T07:45:43.906Z,0.28
2023-05-13T07:48:43.974Z,0.3
2023-05-13T07:51:43.916Z,0.21
2023-05-13T07:54:43.962Z,0.18
2023-05-13T07:57:43.975Z,0.39
2023-05-13T08:00:44.006Z,0.44
2023-05-13T08:03:44.015Z,0.39
2023-05-13T08:06:43.937Z,0.15
2023-05-13T08:09:44.010Z,0.22
2023-05-13T08:12:43.979Z,0.26
2023-05-13T08:15:43.953Z,0.39
2023-05-13T08:18:44.036Z,0.59
2023-05-13T08:21:43.930Z,0.46
2023-05-13T08:24:44.093Z,0.39
2023-05-13T08:27:43.936Z,0.32
2023-05-13T08:30:44.078Z,0.51
2023-05-13T08:33:44.014Z,0.22
2023-05-13T08:36:44.025Z,0.48
2023-05-13T08:39:44.011Z,0.25
2023-05-13T08:42:44.042Z,0.28
2023-05-13T08:45:43.974Z,0.18
2023-05-13T08:48:44.029Z,0.3
2023-05-13T08:51:44.041Z,0.71
2023-05-13T08:54:43.959Z,0.36
2023-05-13T08:57:44.050Z,0.65
2023-05-13T09:00:43.992Z,0.35
2023-05-13T09:03:44.057Z,0.64
2023-05-13T09:06:44.042Z,0.44
2023-05-13T09:09:44.033Z,0.56
2023-05-13T09:12:44.029Z,0.77
2023-05-13T09:15:44.064Z,0.72
2023-05-13T09:18:44.116Z,0.84
2023-05-13T09:21:44.011Z,0.66
2023-05-13T09:24:44.112Z,0.75
2023-05-13T09:27:44.003Z,0.76
2023-05-13T09:30:46.328Z,0.8
2023-05-13T09:33:43.972Z,0.54
2023-05-13T09:36:43.978Z,0.59
2023-05-13T09:39:44.267Z,0.44
2023-05-13T09:42:43.997Z,0.35
2023-05-13T09:45:44.042Z,0.54
2023-05-13T09:48:44.171Z,0.34
2023-05-13T09:51:44.020Z,0.52
2023-05-13T09:54:44.048Z,0.36
2023-05-13T09:57:44.106Z,0.55
2023-05-13T10:03:44.084Z,0.69
2023-05-13T10:06:44.103Z,0.65
2023-05-13T10:09:44.128Z,0.37
2023-05-13T10:12:44.162Z,0.34
2023-05-13T10:15:44.076Z,0.33
2023-05-13T10:18:44.076Z,0.37
2023-05-13T10:21:44.056Z,0.55
2023-05-13T10:24:44.066Z,0.61
2023-05-13T10:27:44.083Z,0.7
2023-05-13T10:30:44.105Z,0.48
2023-05-13T10:33:44.158Z,0.55
2023-05-13T10:36:44.099Z,0.42
2023-05-13T10:39:44.098Z,0.4
2023-05-13T10:42:44.088Z,0.35
2023-05-13T10:45:44.093Z,0.17
2023-05-13T10:48:44.110Z,0.34
2023-05-13T10:51:44.133Z,0.59
2023-05-13T10:54:44.095Z,0.43
2023-05-13T10:57:44.070Z,0.33
2023-05-13T11:00:44.010Z,0.38
2023-05-13T11:03:44.122Z,0.73
2023-05-13T11:06:44.117Z,0.69
2023-05-13T11:09:44.078Z,0.43
2023-05-13T11:12:44.091Z,0.79
2023-05-13T11:15:44.606Z,0.82
2023-05-13T11:18:44.226Z,0.51
2023-05-13T11:21:44.206Z,0.63
2023-05-13T11:24:44.181Z,0.37
2023-05-13T11:27:44.114Z,0.44
2023-05-13T11:30:44.181Z,0.9
2023-05-13T11:33:44.194Z,0.67
2023-05-13T11:36:44.143Z,0.83
2023-05-13T11:39:44.118Z,0.94
2023-05-13T11:42:44.200Z,0.67
2023-05-13T11:45:44.124Z,0.26
2023-05-13T11:48:44.169Z,0.68
2023-05-13T11:51:44.174Z,0.47
2023-05-13T11:54:44.182Z,0.63
2023-05-13T11:57:44.242Z,0.71
2023-05-13T12:00:46.443Z,0.54
2023-05-13T12:03:44.177Z,0.56
2023-05-13T12:06:44.162Z,0.56
2023-05-13T12:09:44.177Z,0.62
2023-05-13T12:12:44.223Z,0.51
2023-05-13T12:15:44.310Z,0.37
2023-05-13T12:18:46.567Z,0.68
2023-05-13T12:21:44.217Z,0.6
2023-05-13T12:24:44.200Z,0.27
2023-05-13T12:27:44.239Z,0.38
2023-05-13T12:30:44.166Z,0.21
2023-05-13T12:33:44.174Z,0.49
2023-05-13T12:36:44.244Z,0.5
2023-05-13T12:39:44.281Z,0.23
2023-05-13T12:42:44.178Z,0.29
2023-05-13T12:45:45.014Z,0.17
2023-05-13T12:48:44.221Z,0.15
2023-05-13T12:51:44.279Z,0.28
2023-05-13T12:54:44.275Z,0.33
2023-05-13T12:57:44.270Z,0.29
2023-05-13T13:00:44.227Z,0.38
2023-05-13T13:03:44.364Z,0.25
2023-05-13T13:06:44.239Z,0.46
2023-05-13T13:09:44.272Z,0.3
2023-05-13T13:12:44.187Z,0.32
2023-05-13T13:15:44.204Z,0.44
2023-05-13T13:18:44.325Z,0.41
2023-05-13T13:21:44.258Z,0.55
2023-05-13T13:24:44.269Z,0.31
2023-05-13T13:27:44.279Z,0.49
2023-05-13T13:30:44.169Z,0.6
2023-05-13T13:33:44.281Z,0.29
2023-05-13T13:36:44.256Z,0.41
2023-05-13T13:39:44.270Z,0.34
2023-05-13T13:42:45.098Z,0.62
2023-05-13T13:45:44.373Z,0.49
2023-05-13T13:48:44.253Z,0.33
2023-05-13T13:51:44.281Z,0.21
2023-05-13T13:54:45.472Z,0.43
2023-05-13T13:57:44.318Z,0.78
2023-05-13T14:00:44.314Z,0.48
2023-05-13T14:03:44.594Z,0.62
2023-05-13T14:06:44.300Z,0.21
2023-05-13T14:09:44.297Z,0.09
2023-05-13T14:12:44.252Z,0.4
2023-05-13T14:15:44.351Z,0.74
2023-05-13T14:18:44.307Z,0.64
2023-05-13T14:21:44.251Z,0.48
2023-05-13T14:24:44.276Z,0.21
2023-05-13T14:27:44.346Z,0.39
2023-05-13T14:30:44.351Z,0.29
2023-05-13T14:33:44.337Z,0.76
2023-05-13T14:36:44.398Z,0.26
2023-05-13T14:39:44.370Z,0.41
2023-05-13T14:42:44.303Z,0.18
2023-05-13T14:45:44.333Z,0.55
2023-05-13T14:48:44.366Z,0.21
2023-05-13T14:51:44.301Z,0.48
2023-05-13T14:54:44.365Z,0.56
2023-05-13T14:57:44.280Z,0.37
2023-05-13T15:00:44.384Z,0.33
2023-05-13T15:03:44.524Z,0.42
2023-05-13T15:06:44.313Z,0.59
2023-05-13T15:09:44.361Z,0.63
2023-05-13T15:12:44.307Z,0.29
2023-05-13T15:15:44.359Z,0.21
2023-05-13T15:18:44.361Z,0.31
2023-05-13T15:21:44.285Z,0.46
2023-05-13T15:24:44.420Z,0.68
2023-05-13T15:27:44.825Z,0.74
2023-05-13T15:30:44.391Z,0.32
2023-05-13T15:33:45.173Z,0.4
2023-05-13T15:36:44.394Z,0.77
2023-05-13T15:39:44.338Z,0.64
2023-05-13T15:42:44.456Z,0.46
2023-05-13T15:45:44.378Z,0.53
2023-05-13T15:48:44.738Z,0.52
2023-05-13T15:51:44.357Z,0.75
2023-05-13T15:54:44.343Z,0.25
2023-05-13T15:57:44.405Z,0.76
2023-05-13T16:00:44.524Z,0.57
2023-05-13T16:03:44.367Z,0.32
2023-05-13T16:06:44.386Z,0.6
2023-05-13T16:09:44.426Z,0.57
2023-05-13T16:12:44.431Z,0.68
2023-05-13T16:15:44.441Z,0.52
2023-05-13T16:18:44.412Z,0.4
2023-05-13T16:21:44.431Z,0.52
2023-05-13T16:24:44.383Z,0.48
2023-05-13T16:27:44.645Z,0.41
2023-05-13T16:30:44.415Z,0.47
2023-05-13T16:33:44.520Z,0.38
2023-05-13T16:36:44.429Z,0.53
2023-05-13T16:39:44.454Z,0.57
2023-05-13T16:42:44.434Z,0.47
2023-05-13T16:45:44.403Z,0.63
2023-05-13T16:48:44.652Z,0.49
2023-05-13T16:51:44.379Z,0.32
2023-05-13T16:54:44.395Z,0.31
2023-05-13T16:57:44.412Z,0.13
2023-05-13T17:00:44.654Z,0.37
2023-05-13T17:03:44.454Z,0.4
2023-05-13T17:06:44.370Z,0.6
2023-05-13T17:09:44.508Z,0.47
2023-05-13T17:12:44.428Z,0.34
2023-05-13T17:15:44.467Z,0.51
2023-05-13T17:18:44.507Z,0.32
2023-05-13T17:21:44.421Z,0.16
2023-05-13T17:24:44.473Z,0.21
2023-05-13T17:27:44.458Z,0.37
2023-05-13T17:30:44.528Z,0.63
2023-05-13T17:33:44.497Z,0.54
2023-05-13T17:36:44.574Z,0.43
2023-05-13T17:39:44.442Z,0.43
2023-05-13T17:42:44.466Z,0.58
2023-05-13T17:45:44.501Z,0.44
2023-05-13T17:48:44.577Z,0.22
2023-05-13T17:51:44.447Z,0.25
2023-05-13T17:54:44.458Z,0.08
2023-05-13T17:57:44.465Z,0.22
2023-05-13T18:00:44.553Z,0.06
2023-05-13T18:03:44.575Z,0.12
2023-05-13T18:06:44.549Z,0.3
2023-05-13T18:09:44.640Z,0.12
2023-05-13T18:12:44.480Z,0.13
2023-05-13T18:15:44.485Z,0.07
2023-05-13T18:18:44.514Z,0.04
2023-05-13T18:21:44.545Z,0.37
2023-05-13T18:24:44.545Z,1.06
2023-05-13T18:27:44.570Z,0.67
2023-05-13T18:30:44.500Z,0.5
2023-05-13T18:33:44.552Z,0.79
2023-05-13T18:36:44.474Z,0.59
2023-05-13T18:39:44.488Z,0.37
2023-05-13T18:42:44.474Z,0.37
2023-05-13T18:45:44.634Z,0.34
2023-05-13T18:48:44.553Z,0.42
2023-05-13T18:51:44.501Z,0.16
2023-05-13T18:54:44.594Z,0.06
2023-05-13T18:57:44.547Z,0.19
2023-05-13T19:00:44.501Z,0.12
2023-05-13T19:03:44.662Z,0.15
2023-05-13T19:06:44.574Z,0.1
2023-05-13T19:09:44.564Z,0.2
2023-05-13T19:12:44.517Z,0.2
2023-05-13T19:15:44.555Z,0.12
2023-05-13T19:18:44.579Z,0.22
2023-05-13T19:21:44.601Z,0.09
2023-05-13T19:24:44.556Z,0.06
2023-05-13T19:27:44.545Z,0.1
2023-05-13T19:30:44.588Z,0.02
2023-05-13T19:33:46.167Z,0
2023-05-13T19:36:44.601Z,0.01
2023-05-13T19:39:44.601Z,0.11
2023-05-13T19:42:44.541Z,0
2023-05-13T19:45:44.611Z,0.04
2023-05-13T19:48:44.626Z,0.03
2023-05-13T19:51:44.647Z,0.01
2023-05-13T19:54:44.659Z,0.01
2023-05-13T19:57:44.562Z,0.04
2023-05-13T20:00:44.653Z,0
2023-05-13T20:03:44.627Z,0
2023-05-13T20:06:44.610Z,0.04
2023-05-13T20:09:45.043Z,0.02
2023-05-13T20:12:44.622Z,0.03
2023-05-13T20:15:44.659Z,0
2023-05-13T20:18:44.735Z,0.04
2023-05-13T20:21:44.654Z,0.2
2023-05-13T20:24:44.567Z,0.06
2023-05-13T20:27:44.593Z,0.13
2023-05-13T20:30:44.624Z,0.04
2023-05-13T20:33:44.670Z,0
2023-05-13T20:36:44.635Z,0
2023-05-13T20:39:44.580Z,0.08
2023-05-13T20:42:44.694Z,0.21
2023-05-13T20:45:44.718Z,0.07
2023-05-13T20:48:44.725Z,0.09
2023-05-13T20:51:44.677Z,0.04
2023-05-13T20:54:44.726Z,0
2023-05-13T20:57:44.674Z,0
2023-05-13T21:00:44.642Z,0.06
2023-05-13T21:03:44.709Z,0
2023-05-13T21:06:44.638Z,0.11
2023-05-13T21:09:44.681Z,0.26
2023-05-13T21:12:44.648Z,0.08
2023-05-13T21:15:44.712Z,0.06
2023-05-13T21:18:44.727Z,0
2023-05-13T21:21:44.637Z,0.03
2023-05-13T21:24:44.657Z,0.1
2023-05-13T21:27:44.705Z,0.02
2023-05-13T21:30:44.668Z,0
2023-05-13T21:33:44.759Z,0
2023-05-13T21:36:44.632Z,0
2023-05-13T21:39:44.714Z,0
2023-05-13T21:42:44.662Z,0
2023-05-13T21:45:44.650Z,0
2023-05-13T21:48:44.658Z,0.19
2023-05-13T21:51:44.694Z,0.43
2023-05-13T21:54:44.697Z,0.62
2023-05-13T21:57:44.742Z,0.43
2023-05-13T22:00:44.672Z,0.47
2023-05-13T22:03:44.709Z,0.64
2023-05-13T22:06:44.695Z,0.53
2023-05-13T22:09:44.780Z,0.35
2023-05-13T22:12:44.700Z,0.19
2023-05-13T22:15:44.752Z,0.09
2023-05-13T22:18:44.879Z,0.01
2023-05-13T22:21:44.755Z,0.05
2023-05-13T22:24:44.716Z,0.15
2023-05-13T22:27:44.762Z,0.03
2023-05-13T22:30:44.772Z,0.01
2023-05-13T22:33:44.793Z,0
2023-05-13T22:36:44.790Z,0
2023-05-13T22:39:44.698Z,0
2023-05-13T22:42:44.786Z,0.12
2023-05-13T22:45:44.705Z,0.09
2023-05-13T22:48:44.782Z,0.01
2023-05-13T22:51:44.716Z,0
2023-05-13T22:54:44.822Z,0
2023-05-13T22:57:44.789Z,0
2023-05-13T23:00:44.711Z,0
2023-05-13T23:03:44.751Z,0
2023-05-13T23:06:44.802Z,0
2023-05-13T23:09:44.727Z,0.09
2023-05-13T23:12:44.774Z,0.16
2023-05-13T23:15:44.830Z,0.1
2023-05-13T23:18:44.805Z,0.02
2023-05-13T23:21:44.734Z,0
2023-05-13T23:24:44.922Z,0.12
2023-05-13T23:27:44.851Z,0.13
2023-05-13T23:30:44.803Z,0.02
2023-05-13T23:33:44.814Z,0
2023-05-13T23:36:44.751Z,0
2023-05-13T23:39:44.850Z,0
2023-05-13T23:42:44.765Z,0
2023-05-13T23:45:44.793Z,0
2023-05-13T23:48:44.776Z,0
2023-05-13T23:51:44.761Z,0
2023-05-13T23:54:44.769Z,0
2023-05-13T23:57:44.771Z,0
